Terminal Aerodrome Forecast
Issued by NWS Lake Charles, LA

Home | Current Version | Previous Version | Text Only | Print | Product List | Glossary On
Versions: 1 2 3 4 5 6 7 8 9 10 11 12 13 14 15 16 17 18
679
FTUS44 KLCH 242333
TAFARA
TAF
KARA 242333Z 2500/2524 16018G30KT P6SM VCSH BKN025 BKN040
      TEMPO 2500/2504 SCT020 BKN040
     FM251000 VRB20G30KT 1SM +TSRA BKN008CB OVC015
     FM251400 17012KT P6SM OVC008
     FM251500 18016G24KT P6SM VCSH OVC015=

USA.gov is the U.S. government's official web portal to all federal, state and local government web resources and services.